Terminal Aerodrome Forecast
Issued by NWS Jackson, KY

Home | Current Version | Previous Version | Text Only | Print | Product List | Glossary On
Versions: 1 2 3 4 5 6 7 8 9 10 11 12 13
818
FTUS43 KJKL 241144 AAA
TAFLOZ
TAF AMD
KLOZ 241144Z 2412/2512 VRB03KT P6SM BKN003
     FM241230 VRB05KT P6SM FEW040 SCT100
     FM250500 VRB03KT 4SM BR SCT150
     FM250900 VRB03KT 3/4SM BR SCT005=

USA.gov is the U.S. government's official web portal to all federal, state and local government web resources and services.